createdAt,value
2023-04-18T00:01:29.204Z,10.48
2023-04-18T00:03:56.024Z,9.50
2023-04-18T00:06:22.717Z,11.32
2023-04-18T00:08:49.325Z,13.00
2023-04-18T00:11:15.808Z,10.45
2023-04-18T00:13:42.331Z,11.50
2023-04-18T00:16:10.078Z,11.18
2023-04-18T00:18:37.137Z,9.63
2023-04-18T00:21:04.512Z,7.85
2023-04-18T00:23:31.164Z,11.68
2023-04-18T00:25:57.773Z,12.10
2023-04-18T00:28:24.463Z,12.40
2023-04-18T00:30:51.085Z,11.60
2023-04-18T00:33:17.803Z,11.50
2023-04-18T00:35:44.559Z,9.32
2023-04-18T00:38:11.245Z,11.77
2023-04-18T00:40:38.502Z,11.82
2023-04-18T00:43:07.791Z,10.73
2023-04-18T00:45:34.553Z,11.60
2023-04-18T00:48:02.025Z,10.15
2023-04-18T00:50:28.781Z,13.43
2023-04-18T00:52:56.133Z,11.25
2023-04-18T00:55:23.929Z,10.93
2023-04-18T00:57:51.770Z,12.45
2023-04-18T01:00:18.465Z,9.52
2023-04-18T01:02:45.207Z,11.43
2023-04-18T01:05:11.984Z,12.73
2023-04-18T01:07:41.588Z,12.48
2023-04-18T01:10:10.322Z,9.73
2023-04-18T01:12:37.736Z,9.38
2023-04-18T01:15:05.711Z,9.20
2023-04-18T01:17:34.628Z,9.95
2023-04-18T01:20:02.334Z,8.35
2023-04-18T01:22:31.336Z,6.85
2023-04-18T01:24:57.962Z,8.68
2023-04-18T01:27:24.518Z,10.15
2023-04-18T01:29:50.981Z,9.27
2023-04-18T01:32:20.155Z,10.07
2023-04-18T01:37:13.260Z,8.60
2023-04-18T01:39:39.852Z,10.18
2023-04-18T01:42:06.406Z,9.30
2023-04-18T01:44:32.903Z,11.20
2023-04-18T01:46:59.502Z,9.30
2023-04-18T01:49:26.147Z,9.70
2023-04-18T01:51:53.745Z,9.18
2023-04-18T01:54:20.238Z,8.18
2023-04-18T01:56:46.894Z,9.35
2023-04-18T01:59:13.426Z,9.27
2023-04-18T02:01:40.374Z,9.93
2023-04-18T02:04:06.886Z,9.23
2023-04-18T02:06:33.370Z,9.00
2023-04-18T02:08:59.884Z,8.25
2023-04-18T02:11:26.462Z,9.38
2023-04-18T02:13:53.014Z,9.30
2023-04-18T02:16:19.567Z,9.30
2023-04-18T02:18:47.170Z,8.85
2023-04-18T02:21:13.632Z,9.88
2023-04-18T02:23:40.455Z,8.77
2023-04-18T02:26:07.273Z,11.93
2023-04-18T02:28:39.027Z,7.85
2023-04-18T02:31:06.282Z,9.10
2023-04-18T02:33:32.822Z,10.13
2023-04-18T02:35:59.352Z,8.43
2023-04-18T02:38:25.852Z,8.85
2023-04-18T02:40:52.376Z,9.60
2023-04-18T02:43:18.825Z,6.57
2023-04-18T02:45:45.415Z,8.40
2023-04-18T02:48:11.977Z,9.45
2023-04-18T02:50:38.530Z,5.82
2023-04-18T02:53:05.026Z,8.82
2023-04-18T02:55:32.114Z,7.60
2023-04-18T02:57:58.611Z,8.48
2023-04-18T03:00:25.331Z,6.53
2023-04-18T03:02:53.156Z,8.73
2023-04-18T03:05:20.267Z,7.25
2023-04-18T03:07:46.815Z,6.03
2023-04-18T03:10:13.520Z,9.02
2023-04-18T03:12:40.089Z,10.15
2023-04-18T03:15:07.288Z,7.82
2023-04-18T03:17:33.919Z,6.78
2023-04-18T03:20:00.533Z,8.07
2023-04-18T03:22:27.220Z,7.45
2023-04-18T03:24:56.063Z,8.85
2023-04-18T03:27:22.561Z,6.90
2023-04-18T03:30:06.235Z,7.20
2023-04-18T03:32:36.390Z,7.25
2023-04-18T03:35:03.315Z,8.00
2023-04-18T03:37:29.836Z,7.30
2023-04-18T03:39:56.341Z,7.38
2023-04-18T03:42:22.794Z,7.32
2023-04-18T03:44:49.284Z,8.52
2023-04-18T03:47:16.920Z,6.60
2023-04-18T03:49:43.480Z,8.90
2023-04-18T03:52:09.956Z,7.68
2023-04-18T03:54:36.516Z,8.70
2023-04-18T03:57:03.162Z,8.75
2023-04-18T03:59:42.247Z,7.30
2023-04-18T04:02:08.819Z,6.13
2023-04-18T04:04:35.312Z,7.10
2023-04-18T04:07:01.953Z,8.20
2023-04-18T04:09:28.477Z,8.73
2023-04-18T04:11:54.974Z,6.97
2023-04-18T04:14:22.742Z,8.70
2023-04-18T04:16:49.251Z,7.75
2023-04-18T04:19:15.805Z,7.78
2023-04-18T04:21:42.673Z,9.20
2023-04-18T04:24:25.261Z,7.45
2023-04-18T04:26:52.785Z,6.47
2023-04-18T04:29:19.430Z,8.52
2023-04-18T04:31:46.167Z,8.55
2023-04-18T04:34:13.063Z,11.32
2023-04-18T04:36:41.205Z,7.93
2023-04-18T04:39:08.641Z,9.48
2023-04-18T04:41:37.536Z,7.53
2023-04-18T04:44:04.355Z,9.52
2023-04-18T04:46:31.820Z,7.63
2023-04-18T04:48:58.311Z,7.55
2023-04-18T04:51:24.953Z,8.77
2023-04-18T04:53:51.649Z,8.77
2023-04-18T04:56:18.489Z,7.05
2023-04-18T04:58:47.174Z,9.77
2023-04-18T05:01:13.770Z,7.30
2023-04-18T05:03:40.386Z,7.55
2023-04-18T05:06:07.229Z,7.65
2023-04-18T05:08:33.720Z,7.07
2023-04-18T05:11:01.746Z,7.85
2023-04-18T05:13:32.331Z,5.13
2023-04-18T05:15:59.342Z,9.13
2023-04-18T05:18:25.840Z,12.18
2023-04-18T05:20:52.373Z,7.72
2023-04-18T05:23:18.881Z,10.75
2023-04-18T05:25:45.446Z,12.10
2023-04-18T05:28:11.954Z,9.27
2023-04-18T05:30:40.105Z,10.07
2023-04-18T05:33:06.723Z,7.80
2023-04-18T05:35:33.436Z,9.85
2023-04-18T05:38:00.154Z,9.85
2023-04-18T05:40:30.204Z,9.82
2023-04-18T05:42:56.731Z,10.63
2023-04-18T05:45:23.340Z,10.48
2023-04-18T05:47:49.870Z,11.77
2023-04-18T05:50:16.415Z,11.18
2023-04-18T05:52:43.049Z,10.45
2023-04-18T05:55:09.774Z,8.30
2023-04-18T05:57:36.334Z,10.35
2023-04-18T06:00:06.932Z,10.90
2023-04-18T06:02:33.729Z,8.85
2023-04-18T06:05:01.534Z,9.05
2023-04-18T06:07:28.280Z,9.32
2023-04-18T06:09:54.826Z,13.00
2023-04-18T06:12:21.384Z,9.15
2023-04-18T06:14:56.078Z,9.90
2023-04-18T06:17:22.704Z,8.73
2023-04-18T06:19:52.426Z,7.55
2023-04-18T06:22:19.104Z,9.18
2023-04-18T06:24:45.982Z,7.95
2023-04-18T06:27:24.196Z,7.78
2023-04-18T06:29:54.684Z,8.50
2023-04-18T06:32:21.224Z,8.13
2023-04-18T06:34:47.672Z,9.43
2023-04-18T06:37:14.233Z,8.45
2023-04-18T06:39:40.766Z,8.75
2023-04-18T06:42:07.346Z,9.80
2023-04-18T06:44:33.833Z,9.38
2023-04-18T06:47:00.373Z,8.65
2023-04-18T06:49:26.944Z,8.45
2023-04-18T06:51:53.527Z,8.75
2023-04-18T06:54:20.067Z,8.75
2023-04-18T06:56:46.834Z,8.05
2023-04-18T06:59:16.560Z,10.45
2023-04-18T07:01:43.129Z,8.43
2023-04-18T07:04:09.945Z,10.88
2023-04-18T07:06:37.312Z,8.85
2023-04-18T07:09:03.843Z,9.48
2023-04-18T07:11:30.348Z,9.27
2023-04-18T07:13:57.895Z,8.45
2023-04-18T07:16:24.496Z,9.15
2023-04-18T07:18:52.105Z,8.27
2023-04-18T07:21:19.132Z,9.63
2023-04-18T07:23:46.757Z,8.38
2023-04-18T07:26:13.736Z,8.68
2023-04-18T07:28:40.317Z,9.25
2023-04-18T07:33:38.710Z,10.50
2023-04-18T07:36:06.095Z,9.32
2023-04-18T07:38:35.270Z,9.52
2023-04-18T07:41:03.331Z,8.02
2023-04-18T07:43:30.212Z,8.68
2023-04-18T07:45:56.879Z,8.07
2023-04-18T07:48:23.542Z,9.55
2023-04-18T07:50:50.096Z,9.30
2023-04-18T07:53:17.047Z,7.53
2023-04-18T07:55:43.682Z,9.05
2023-04-18T07:58:10.452Z,11.05
2023-04-18T08:00:42.698Z,9.43
2023-04-18T08:03:12.671Z,8.35
2023-04-18T08:05:40.201Z,9.15
2023-04-18T08:08:08.213Z,9.32
2023-04-18T08:10:35.461Z,9.30
2023-04-18T08:13:02.730Z,8.93
2023-04-18T08:15:31.700Z,8.30
2023-04-18T08:20:44.838Z,8.63
2023-04-18T08:23:13.174Z,11.60
2023-04-18T08:25:39.916Z,9.50
2023-04-18T08:28:06.685Z,9.77
2023-04-18T08:30:49.186Z,10.07
2023-04-18T08:33:16.264Z,9.25
2023-04-18T08:35:43.153Z,9.60
2023-04-18T08:38:10.067Z,9.93
2023-04-18T08:40:37.571Z,11.52
2023-04-18T08:43:09.459Z,10.15
2023-04-18T08:45:36.871Z,11.38
2023-04-18T08:48:03.997Z,11.15
2023-04-18T08:50:31.937Z,9.55
2023-04-18T08:53:01.335Z,10.88
2023-04-18T08:55:27.993Z,8.70
2023-04-18T08:57:55.248Z,9.20
2023-04-18T09:00:22.784Z,9.63
2023-04-18T09:02:50.823Z,10.82
2023-04-18T09:05:19.571Z,8.80
2023-04-18T09:07:47.790Z,11.15
2023-04-18T09:10:32.724Z,10.55
2023-04-18T09:13:03.164Z,12.02
2023-04-18T09:15:30.389Z,10.57
2023-04-18T09:18:03.226Z,10.18
2023-04-18T09:20:43.729Z,11.73
2023-04-18T09:23:14.695Z,9.10
2023-04-18T09:25:46.729Z,12.00
2023-04-18T09:28:31.861Z,10.70
2023-04-18T09:31:12.981Z,10.40
2023-04-18T09:33:43.310Z,12.70
2023-04-18T09:36:21.479Z,11.02
2023-04-18T09:38:49.948Z,10.73
2023-04-18T09:41:19.938Z,12.75
2023-04-18T09:43:47.922Z,11.20
2023-04-18T09:46:15.039Z,9.35
2023-04-18T09:48:41.995Z,11.32
2023-04-18T09:51:15.818Z,9.55
2023-04-18T09:53:50.455Z,9.75
2023-04-18T09:56:28.472Z,11.20
2023-04-18T09:59:08.499Z,12.10
2023-04-18T10:01:35.848Z,11.05
2023-04-18T10:04:06.449Z,12.23
2023-04-18T10:06:34.829Z,11.20
2023-04-18T10:09:04.442Z,11.10
2023-04-18T10:11:32.232Z,10.40
2023-04-18T10:14:13.086Z,10.68
2023-04-18T10:16:40.802Z,11.65
2023-04-18T10:19:27.391Z,11.18
2023-04-18T10:21:59.137Z,10.48
2023-04-18T10:24:57.501Z,11.95
2023-04-18T10:28:02.461Z,11.05
2023-04-18T10:30:41.010Z,10.40
2023-04-18T10:33:32.221Z,11.65
2023-04-18T10:36:08.615Z,11.63
2023-04-18T10:38:38.844Z,12.32
2023-04-18T10:41:22.983Z,12.25
2023-04-18T10:44:08.641Z,10.95
2023-04-18T10:46:41.056Z,12.00
2023-04-18T10:49:15.313Z,10.00
2023-04-18T10:51:44.476Z,11.35
2023-04-18T10:54:25.735Z,11.38
2023-04-18T10:56:57.173Z,10.88
2023-04-18T10:59:25.303Z,11.13
2023-04-18T11:01:57.191Z,11.65
2023-04-18T11:04:25.658Z,10.32
2023-04-18T11:06:57.096Z,12.30
2023-04-18T11:09:23.909Z,9.48
2023-04-18T11:12:20.297Z,12.15
2023-04-18T11:14:54.473Z,9.80
2023-04-18T11:17:23.849Z,12.20
2023-04-18T11:20:15.173Z,9.70
2023-04-18T11:22:56.195Z,9.48
2023-04-18T11:25:28.064Z,10.85
2023-04-18T11:27:55.873Z,8.63
2023-04-18T11:30:22.573Z,9.05
2023-04-18T11:32:49.308Z,8.68
2023-04-18T11:35:16.161Z,9.48
2023-04-18T11:37:45.635Z,10.05
2023-04-18T11:40:14.198Z,10.43
2023-04-18T11:47:38.973Z,10.88
2023-04-18T11:50:07.930Z,9.52
2023-04-18T11:52:36.404Z,9.82
2023-04-18T11:55:14.986Z,9.73
2023-04-18T11:57:42.009Z,10.27
2023-04-18T12:00:10.148Z,9.63
2023-04-18T12:02:45.778Z,10.90
2023-04-18T12:05:24.228Z,11.38
2023-04-18T12:07:51.333Z,10.65
2023-04-18T12:10:20.993Z,10.35
2023-04-18T12:12:48.928Z,11.05
2023-04-18T12:15:29.537Z,10.98
2023-04-18T12:18:05.446Z,10.98
2023-04-18T12:20:37.385Z,10.35
2023-04-18T12:23:04.079Z,10.80
2023-04-18T12:25:32.454Z,11.52
2023-04-18T12:28:26.326Z,9.75
2023-04-18T12:30:52.866Z,10.57
2023-04-18T12:33:19.740Z,10.70
2023-04-18T12:35:47.812Z,10.27
2023-04-18T12:38:15.752Z,10.82
2023-04-18T12:40:42.267Z,10.48
2023-04-18T12:43:09.588Z,12.20
2023-04-18T12:45:36.119Z,11.52
2023-04-18T12:48:02.707Z,10.57
2023-04-18T12:50:35.110Z,12.25
2023-04-18T12:53:02.355Z,13.10
2023-04-18T12:55:29.379Z,12.00
2023-04-18T12:57:56.643Z,12.13
2023-04-18T13:00:26.093Z,13.70
2023-04-18T13:02:52.956Z,12.43
2023-04-18T13:05:21.846Z,13.10
2023-04-18T13:07:49.802Z,13.35
2023-04-18T13:10:21.974Z,9.63
2023-04-18T13:12:50.184Z,11.98
2023-04-18T13:15:17.455Z,11.30
2023-04-18T13:17:44.610Z,11.15
2023-04-18T13:20:12.709Z,10.90
2023-04-18T13:22:40.357Z,11.18
2023-04-18T13:25:18.111Z,12.27
2023-04-18T13:27:45.907Z,9.88
2023-04-18T13:30:14.539Z,11.68
2023-04-18T13:32:41.627Z,10.85
2023-04-18T13:37:38.158Z,12.00
2023-04-18T13:40:06.499Z,12.40
2023-04-18T13:42:37.294Z,11.45
2023-04-18T13:45:04.283Z,14.43
2023-04-18T13:47:31.164Z,10.45
2023-04-18T13:49:57.929Z,11.27
2023-04-18T13:52:25.519Z,10.95
2023-04-18T13:54:52.173Z,13.70
2023-04-18T13:57:18.714Z,11.85
2023-04-18T13:59:45.203Z,11.20
2023-04-18T14:02:12.146Z,13.45
2023-04-18T14:04:39.107Z,11.77
2023-04-18T14:07:06.425Z,11.55
2023-04-18T14:09:33.243Z,9.40
2023-04-18T14:11:59.871Z,10.98
2023-04-18T14:14:26.482Z,11.45
2023-04-18T14:16:53.907Z,12.20
2023-04-18T14:19:22.888Z,10.23
2023-04-18T14:21:49.458Z,11.00
2023-04-18T14:24:17.298Z,9.68
2023-04-18T14:26:44.052Z,9.68
2023-04-18T14:29:11.122Z,10.80
2023-04-18T14:31:37.827Z,11.15
2023-04-18T14:34:04.558Z,8.30
2023-04-18T14:36:31.881Z,9.68
2023-04-18T14:38:59.136Z,11.05
2023-04-18T14:41:25.723Z,12.20
2023-04-18T14:43:52.655Z,9.88
2023-04-18T14:46:21.149Z,10.13
2023-04-18T14:51:17.254Z,9.95
2023-04-18T14:53:44.869Z,9.38
2023-04-18T14:56:11.725Z,9.70
2023-04-18T14:58:38.328Z,9.57
2023-04-18T15:01:05.807Z,10.85
2023-04-18T15:03:33.390Z,10.18
2023-04-18T15:06:00.263Z,9.63
2023-04-18T15:08:26.909Z,9.90
2023-04-18T15:10:53.476Z,10.95
2023-04-18T15:13:20.322Z,10.23
2023-04-18T15:15:55.174Z,9.98
2023-04-18T15:18:22.265Z,10.15
2023-04-18T15:20:48.808Z,10.68
2023-04-18T15:23:16.147Z,10.18
2023-04-18T15:25:44.510Z,10.48
2023-04-18T15:30:39.114Z,8.82
2023-04-18T15:33:05.753Z,10.75
2023-04-18T15:35:32.400Z,9.48
2023-04-18T15:37:59.067Z,11.15
2023-04-18T15:40:26.187Z,10.30
2023-04-18T15:42:54.317Z,9.75
2023-04-18T15:45:21.396Z,9.55
2023-04-18T15:47:48.127Z,9.70
2023-04-18T15:50:16.260Z,9.68
2023-04-18T15:52:43.245Z,9.65
2023-04-18T15:55:13.501Z,9.77
2023-04-18T15:57:41.666Z,12.70
2023-04-18T16:02:46.697Z,10.48
2023-04-18T16:05:14.410Z,9.15
2023-04-18T16:07:42.167Z,9.45
2023-04-18T16:10:10.819Z,11.05
2023-04-18T16:12:39.501Z,11.60
2023-04-18T16:15:08.622Z,8.77
2023-04-18T16:17:36.250Z,9.57
2023-04-18T16:20:03.683Z,8.52
2023-04-18T16:22:30.363Z,7.70
2023-04-18T16:24:57.045Z,8.55
2023-04-18T16:27:23.603Z,8.52
2023-04-18T16:29:50.270Z,9.00
2023-04-18T16:32:16.913Z,7.90
2023-04-18T16:34:43.441Z,11.00
2023-04-18T16:37:10.118Z,8.68
2023-04-18T16:39:37.039Z,8.45
2023-04-18T16:42:04.148Z,10.32
2023-04-18T16:44:30.819Z,8.70
2023-04-18T16:46:57.528Z,8.85
2023-04-18T16:49:24.320Z,7.30
2023-04-18T16:51:51.167Z,8.13
2023-04-18T16:54:17.974Z,7.65
2023-04-18T16:56:44.824Z,7.43
2023-04-18T16:59:11.554Z,8.38
2023-04-18T17:01:38.301Z,8.60
2023-04-18T17:04:05.451Z,8.57
2023-04-18T17:06:32.707Z,9.90
2023-04-18T17:08:59.618Z,10.70
2023-04-18T17:11:26.556Z,9.63
2023-04-18T17:13:53.279Z,10.45
2023-04-18T17:16:20.090Z,10.90
2023-04-18T17:18:46.796Z,9.05
2023-04-18T17:21:13.479Z,9.60
2023-04-18T17:23:42.275Z,9.27
2023-04-18T17:26:09.686Z,9.43
2023-04-18T17:28:36.478Z,11.32
2023-04-18T17:31:03.209Z,8.63
2023-04-18T17:33:29.900Z,11.25
2023-04-18T17:35:59.536Z,10.95
2023-04-18T17:38:26.092Z,10.27
2023-04-18T17:41:04.639Z,9.27
2023-04-18T17:43:31.245Z,11.32
2023-04-18T17:46:00.265Z,9.48
2023-04-18T17:48:26.825Z,10.63
2023-04-18T17:50:53.610Z,10.70
2023-04-18T17:53:20.239Z,12.02
2023-04-18T17:55:48.894Z,9.82
2023-04-18T18:00:43.550Z,10.40
2023-04-18T18:03:13.585Z,10.95
2023-04-18T18:05:41.502Z,10.05
2023-04-18T18:08:08.017Z,13.23
2023-04-18T18:10:34.664Z,10.98
2023-04-18T18:13:01.191Z,10.90
2023-04-18T18:15:28.548Z,10.75
2023-04-18T18:17:55.690Z,10.25
2023-04-18T18:20:22.448Z,10.77
2023-04-18T18:22:49.061Z,13.75
2023-04-18T18:25:15.776Z,10.25
2023-04-18T18:27:42.562Z,14.38
2023-04-18T18:30:09.585Z,13.18
2023-04-18T18:32:36.187Z,13.05
2023-04-18T18:35:02.773Z,13.45
2023-04-18T18:37:29.434Z,13.07
2023-04-18T18:40:00.390Z,12.45
2023-04-18T18:42:27.182Z,12.27
2023-04-18T18:44:53.747Z,12.85
2023-04-18T18:47:20.622Z,12.13
2023-04-18T18:49:48.732Z,11.75
2023-04-18T18:52:15.958Z,11.93
2023-04-18T18:54:42.745Z,12.35
2023-04-18T18:57:09.292Z,11.85
2023-04-18T18:59:36.022Z,11.77
2023-04-18T19:02:02.712Z,13.60
2023-04-18T19:04:29.513Z,12.30
2023-04-18T19:06:56.623Z,13.27
2023-04-18T19:09:23.220Z,13.30
2023-04-18T19:11:49.894Z,11.57
2023-04-18T19:14:16.650Z,11.57
2023-04-18T19:16:43.309Z,10.95
2023-04-18T19:19:10.242Z,11.65
2023-04-18T19:21:37.059Z,10.90
2023-04-18T19:24:03.919Z,12.50
2023-04-18T19:26:30.620Z,11.07
2023-04-18T19:28:57.343Z,11.65
2023-04-18T19:31:23.970Z,12.35
2023-04-18T19:33:50.840Z,12.70
2023-04-18T19:36:17.451Z,12.43
2023-04-18T19:38:43.998Z,14.55
2023-04-18T19:41:10.696Z,10.88
2023-04-18T19:43:38.674Z,13.68
2023-04-18T19:46:05.683Z,12.20
2023-04-18T19:48:32.246Z,13.63
2023-04-18T19:50:58.771Z,12.95
2023-04-18T19:53:25.749Z,12.77
2023-04-18T19:55:53.717Z,9.93
2023-04-18T19:58:44.902Z,12.25
2023-04-18T20:01:12.714Z,10.43
2023-04-18T20:03:39.752Z,12.48
2023-04-18T20:06:07.113Z,12.93
2023-04-18T20:08:39.670Z,12.55
2023-04-18T20:11:11.063Z,12.95
2023-04-18T20:13:38.166Z,10.35
2023-04-18T20:16:05.893Z,12.18
2023-04-18T20:18:34.484Z,13.45
2023-04-18T20:21:03.038Z,11.05
2023-04-18T20:23:29.734Z,13.10
2023-04-18T20:25:56.251Z,7.45
2023-04-18T20:28:22.961Z,12.68
2023-04-18T20:30:49.657Z,12.20
2023-04-18T20:33:16.447Z,12.07
2023-04-18T20:35:44.763Z,10.52
2023-04-18T20:38:12.328Z,13.43
2023-04-18T20:40:39.640Z,12.05
2023-04-18T20:43:08.129Z,11.18
2023-04-18T20:45:37.422Z,11.27
2023-04-18T20:48:04.470Z,12.90
2023-04-18T20:50:31.008Z,9.88
2023-04-18T20:53:00.374Z,12.73
2023-04-18T20:55:26.934Z,11.02
2023-04-18T20:57:53.578Z,11.30
2023-04-18T21:00:22.271Z,12.43
2023-04-18T21:02:48.985Z,11.35
2023-04-18T21:05:15.701Z,12.45
2023-04-18T21:07:44.034Z,10.20
2023-04-18T21:10:11.853Z,11.43
2023-04-18T21:12:38.503Z,10.68
2023-04-18T21:15:05.670Z,11.93
2023-04-18T21:17:32.249Z,11.02
2023-04-18T21:19:59.280Z,7.95
2023-04-18T21:22:25.994Z,11.98
2023-04-18T21:24:52.525Z,10.18
2023-04-18T21:27:19.086Z,10.88
2023-04-18T21:29:45.895Z,12.68
2023-04-18T21:32:28.023Z,12.13
2023-04-18T21:34:56.301Z,15.85
2023-04-18T21:37:25.128Z,11.35
2023-04-18T21:39:51.693Z,14.23
2023-04-18T21:42:18.315Z,11.23
2023-04-18T21:44:44.796Z,12.68
2023-04-18T21:47:11.352Z,13.48
2023-04-18T21:49:37.814Z,9.07
2023-04-18T21:52:04.475Z,11.15
2023-04-18T21:54:30.973Z,11.90
2023-04-18T21:56:58.287Z,9.80
2023-04-18T21:59:24.872Z,11.93
2023-04-18T22:01:51.507Z,11.13
2023-04-18T22:04:21.156Z,12.65
2023-04-18T22:06:47.885Z,11.52
2023-04-18T22:09:14.457Z,12.48
2023-04-18T22:11:41.235Z,13.80
2023-04-18T22:14:09.884Z,10.52
2023-04-18T22:16:38.120Z,12.25
2023-04-18T22:19:05.856Z,11.88
2023-04-18T22:21:32.541Z,12.35
2023-04-18T22:23:59.001Z,11.38
2023-04-18T22:26:25.756Z,11.45
2023-04-18T22:28:52.231Z,11.48
2023-04-18T22:31:18.850Z,12.68
2023-04-18T22:33:47.442Z,12.85
2023-04-18T22:36:13.961Z,11.55
2023-04-18T22:38:40.428Z,11.35
2023-04-18T22:41:07.844Z,12.80
2023-04-18T22:43:34.440Z,13.23
2023-04-18T22:46:01.058Z,13.02
2023-04-18T22:48:27.560Z,12.27
2023-04-18T22:50:54.268Z,12.55
2023-04-18T22:53:21.069Z,11.43
2023-04-18T22:55:47.584Z,13.10
2023-04-18T22:58:14.287Z,9.80
2023-04-18T23:00:40.888Z,11.10
2023-04-18T23:03:07.504Z,11.20
2023-04-18T23:05:34.444Z,14.27
2023-04-18T23:08:00.976Z,12.30
2023-04-18T23:10:27.610Z,11.68
2023-04-18T23:12:54.100Z,13.93
2023-04-18T23:15:22.774Z,13.23
2023-04-18T23:17:52.210Z,11.57
2023-04-18T23:20:19.417Z,12.10
2023-04-18T23:22:46.881Z,13.20
2023-04-18T23:25:13.447Z,12.20
2023-04-18T23:27:40.199Z,12.50
2023-04-18T23:30:07.478Z,12.27
2023-04-18T23:32:34.113Z,13.60
2023-04-18T23:35:04.201Z,12.18
2023-04-18T23:37:31.496Z,14.45
2023-04-18T23:39:59.858Z,13.05
2023-04-18T23:42:26.483Z,13.68
2023-04-18T23:44:53.321Z,12.68
2023-04-18T23:47:20.073Z,13.32
2023-04-18T23:49:46.629Z,12.80
2023-04-18T23:52:13.147Z,13.05
2023-04-18T23:54:39.714Z,14.30
2023-04-18T23:57:06.500Z,12.10
2023-04-18T23:59:32.980Z,12.05
